sensor_id;sensor_type;location;lat;lon;timestamp;temperature;humidity
66728;DHT22;53641;44.274;19.890;2023-02-27T00:02:24;5.30;99.90
66728;DHT22;53641;44.274;19.890;2023-02-27T00:04:49;5.50;99.90
66728;DHT22;53641;44.274;19.890;2023-02-27T00:07:15;5.40;99.90
66728;DHT22;53641;44.274;19.890;2023-02-27T00:09:41;5.50;99.90
66728;DHT22;53641;44.274;19.890;2023-02-27T00:12:08;5.40;99.90
66728;DHT22;53641;44.274;19.890;2023-02-27T00:14:34;5.50;99.90
66728;DHT22;53641;44.274;19.890;2023-02-27T00:16:59;5.50;99.90
66728;DHT22;53641;44.274;19.890;2023-02-27T00:19:25;5.40;99.90
66728;DHT22;53641;44.274;19.890;2023-02-27T00:21:51;5.50;99.90
66728;DHT22;53641;44.274;19.890;2023-02-27T00:24:16;5.50;99.90
66728;DHT22;53641;44.274;19.890;2023-02-27T00:26:42;5.30;99.90
66728;DHT22;53641;44.274;19.890;2023-02-27T00:29:08;5.40;99.90
66728;DHT22;53641;44.274;19.890;2023-02-27T00:31:33;5.50;99.90
66728;DHT22;53641;44.274;19.890;2023-02-27T00:33:59;5.50;99.90
66728;DHT22;53641;44.274;19.890;2023-02-27T00:36:25;5.40;99.90
66728;DHT22;53641;44.274;19.890;2023-02-27T00:38:51;5.60;99.90
66728;DHT22;53641;44.274;19.890;2023-02-27T00:41:17;5.50;99.90
66728;DHT22;53641;44.274;19.890;2023-02-27T00:43:42;5.60;99.90
66728;DHT22;53641;44.274;19.890;2023-02-27T00:46:08;5.60;99.90
66728;DHT22;53641;44.274;19.890;2023-02-27T00:48:34;5.50;99.90
66728;DHT22;53641;44.274;19.890;2023-02-27T00:51:00;5.50;99.90
66728;DHT22;53641;44.274;19.890;2023-02-27T00:53:26;5.40;99.90
66728;DHT22;53641;44.274;19.890;2023-02-27T00:55:51;5.40;99.90
66728;DHT22;53641;44.274;19.890;2023-02-27T00:58:17;5.50;99.90
66728;DHT22;53641;44.274;19.890;2023-02-27T01:00:43;5.40;99.90
66728;DHT22;53641;44.274;19.890;2023-02-27T01:03:09;5.50;99.90
66728;DHT22;53641;44.274;19.890;2023-02-27T01:05:34;5.40;99.90
66728;DHT22;53641;44.274;19.890;2023-02-27T01:08:00;5.40;99.90
66728;DHT22;53641;44.274;19.890;2023-02-27T01:10:26;5.40;99.90
66728;DHT22;53641;44.274;19.890;2023-02-27T01:12:51;5.40;99.90
66728;DHT22;53641;44.274;19.890;2023-02-27T01:15:17;5.50;99.90
66728;DHT22;53641;44.274;19.890;2023-02-27T01:17:43;5.20;99.90
66728;DHT22;53641;44.274;19.890;2023-02-27T01:20:09;5.50;99.90
66728;DHT22;53641;44.274;19.890;2023-02-27T01:22:35;5.50;99.90
66728;DHT22;53641;44.274;19.890;2023-02-27T01:25:01;5.60;99.90
66728;DHT22;53641;44.274;19.890;2023-02-27T01:27:27;5.40;99.90
66728;DHT22;53641;44.274;19.890;2023-02-27T01:29:53;5.40;99.90
66728;DHT22;53641;44.274;19.890;2023-02-27T01:32:18;5.40;99.90
66728;DHT22;53641;44.274;19.890;2023-02-27T01:34:44;5.30;99.90
66728;DHT22;53641;44.274;19.890;2023-02-27T01:37:10;5.40;99.90
66728;DHT22;53641;44.274;19.890;2023-02-27T01:39:35;5.40;99.90
66728;DHT22;53641;44.274;19.890;2023-02-27T01:42:02;5.40;99.90
66728;DHT22;53641;44.274;19.890;2023-02-27T01:44:29;5.40;99.90
66728;DHT22;53641;44.274;19.890;2023-02-27T01:46:55;5.20;99.90
66728;DHT22;53641;44.274;19.890;2023-02-27T01:49:22;5.40;99.90
66728;DHT22;53641;44.274;19.890;2023-02-27T01:51:50;5.40;99.90
66728;DHT22;53641;44.274;19.890;2023-02-27T01:54:19;5.30;99.90
66728;DHT22;53641;44.274;19.890;2023-02-27T01:56:46;5.10;99.90
66728;DHT22;53641;44.274;19.890;2023-02-27T01:59:12;5.30;99.90
66728;DHT22;53641;44.274;19.890;2023-02-27T02:01:39;5.30;99.90
66728;DHT22;53641;44.274;19.890;2023-02-27T02:04:09;5.40;99.90
66728;DHT22;53641;44.274;19.890;2023-02-27T02:06:37;5.40;99.90
66728;DHT22;53641;44.274;19.890;2023-02-27T02:09:04;5.30;99.90
66728;DHT22;53641;44.274;19.890;2023-02-27T02:11:30;5.30;99.90
66728;DHT22;53641;44.274;19.890;2023-02-27T02:13:57;5.40;99.90
66728;DHT22;53641;44.274;19.890;2023-02-27T02:16:33;5.30;99.90
66728;DHT22;53641;44.274;19.890;2023-02-27T02:19:19;5.40;99.90
66728;DHT22;53641;44.274;19.890;2023-02-27T02:21:59;5.30;99.90
66728;DHT22;53641;44.274;19.890;2023-02-27T02:24:52;5.40;99.90
66728;DHT22;53641;44.274;19.890;2023-02-27T02:27:23;5.20;99.90
66728;DHT22;53641;44.274;19.890;2023-02-27T02:30:04;5.40;99.90
66728;DHT22;53641;44.274;19.890;2023-02-27T02:34:01;5.40;99.90
66728;DHT22;53641;44.274;19.890;2023-02-27T02:35:38;5.40;99.90
66728;DHT22;53641;44.274;19.890;2023-02-27T02:39:02;5.40;99.90
66728;DHT22;53641;44.274;19.890;2023-02-27T02:40:56;5.40;99.90
66728;DHT22;53641;44.274;19.890;2023-02-27T02:43:26;5.50;99.90
66728;DHT22;53641;44.274;19.890;2023-02-27T02:46:08;5.60;99.90
66728;DHT22;53641;44.274;19.890;2023-02-27T02:48:40;5.60;99.90
66728;DHT22;53641;44.274;19.890;2023-02-27T02:51:29;5.50;99.90
66728;DHT22;53641;44.274;19.890;2023-02-27T02:54:09;5.50;99.90
66728;DHT22;53641;44.274;19.890;2023-02-27T02:56:43;5.40;99.90
66728;DHT22;53641;44.274;19.890;2023-02-27T02:59:15;5.40;99.90
66728;DHT22;53641;44.274;19.890;2023-02-27T03:01:42;6.00;99.90
66728;DHT22;53641;44.274;19.890;2023-02-27T03:04:12;5.10;99.90
66728;DHT22;53641;44.274;19.890;2023-02-27T03:06:46;5.40;99.90
66728;DHT22;53641;44.274;19.890;2023-02-27T03:09:18;5.40;99.90
66728;DHT22;53641;44.274;19.890;2023-02-27T03:11:46;5.60;99.90
66728;DHT22;53641;44.274;19.890;2023-02-27T03:14:15;5.60;99.90
66728;DHT22;53641;44.274;19.890;2023-02-27T03:16:43;5.30;99.90
66728;DHT22;53641;44.274;19.890;2023-02-27T03:19:16;5.10;99.90
66728;DHT22;53641;44.274;19.890;2023-02-27T03:21:45;5.40;99.90
66728;DHT22;53641;44.274;19.890;2023-02-27T03:24:14;5.50;99.90
66728;DHT22;53641;44.274;19.890;2023-02-27T03:26:44;5.30;99.90
66728;DHT22;53641;44.274;19.890;2023-02-27T03:29:13;5.40;99.90
66728;DHT22;53641;44.274;19.890;2023-02-27T03:31:41;5.40;99.90
66728;DHT22;53641;44.274;19.890;2023-02-27T03:34:16;5.50;99.90
66728;DHT22;53641;44.274;19.890;2023-02-27T03:36:46;5.60;99.90
66728;DHT22;53641;44.274;19.890;2023-02-27T03:39:19;5.60;99.90
66728;DHT22;53641;44.274;19.890;2023-02-27T03:41:49;5.60;99.90
66728;DHT22;53641;44.274;19.890;2023-02-27T03:44:21;5.60;99.90
66728;DHT22;53641;44.274;19.890;2023-02-27T03:46:49;5.50;99.90
66728;DHT22;53641;44.274;19.890;2023-02-27T03:49:14;5.40;99.90
66728;DHT22;53641;44.274;19.890;2023-02-27T03:51:40;5.10;99.90
66728;DHT22;53641;44.274;19.890;2023-02-27T03:54:08;5.30;99.90
66728;DHT22;53641;44.274;19.890;2023-02-27T03:56:37;5.40;99.90
66728;DHT22;53641;44.274;19.890;2023-02-27T03:59:04;5.50;99.90
66728;DHT22;53641;44.274;19.890;2023-02-27T04:01:30;5.40;99.90
66728;DHT22;53641;44.274;19.890;2023-02-27T04:03:57;5.30;99.90
66728;DHT22;53641;44.274;19.890;2023-02-27T04:06:25;5.30;99.90
66728;DHT22;53641;44.274;19.890;2023-02-27T04:09:29;5.30;99.90
66728;DHT22;53641;44.274;19.890;2023-02-27T04:12:10;5.40;99.90
66728;DHT22;53641;44.274;19.890;2023-02-27T04:14:55;5.30;99.90
66728;DHT22;53641;44.274;19.890;2023-02-27T04:17:23;5.40;99.90
66728;DHT22;53641;44.274;19.890;2023-02-27T04:20:16;5.50;99.90
66728;DHT22;53641;44.274;19.890;2023-02-27T04:22:46;5.50;99.90
66728;DHT22;53641;44.274;19.890;2023-02-27T04:25:31;5.50;99.90
66728;DHT22;53641;44.274;19.890;2023-02-27T04:28:13;5.50;99.90
66728;DHT22;53641;44.274;19.890;2023-02-27T04:30:47;5.40;99.90
66728;DHT22;53641;44.274;19.890;2023-02-27T04:33:27;5.20;99.90
66728;DHT22;53641;44.274;19.890;2023-02-27T04:35:59;5.40;99.90
66728;DHT22;53641;44.274;19.890;2023-02-27T04:38:34;5.30;99.90
66728;DHT22;53641;44.274;19.890;2023-02-27T04:41:04;5.20;99.90
66728;DHT22;53641;44.274;19.890;2023-02-27T04:43:31;5.30;99.90
66728;DHT22;53641;44.274;19.890;2023-02-27T04:45:58;5.20;99.90
66728;DHT22;53641;44.274;19.890;2023-02-27T04:48:25;5.10;99.90
66728;DHT22;53641;44.274;19.890;2023-02-27T04:51:06;5.40;99.90
66728;DHT22;53641;44.274;19.890;2023-02-27T04:53:38;5.30;99.90
66728;DHT22;53641;44.274;19.890;2023-02-27T04:56:10;5.50;99.90
66728;DHT22;53641;44.274;19.890;2023-02-27T04:58:42;5.40;99.90
66728;DHT22;53641;44.274;19.890;2023-02-27T05:01:14;5.50;99.90
66728;DHT22;53641;44.274;19.890;2023-02-27T05:03:45;5.50;99.90
66728;DHT22;53641;44.274;19.890;2023-02-27T05:06:12;5.40;99.90
66728;DHT22;53641;44.274;19.890;2023-02-27T05:08:57;5.40;99.90
66728;DHT22;53641;44.274;19.890;2023-02-27T05:11:25;5.30;99.90
66728;DHT22;53641;44.274;19.890;2023-02-27T05:13:54;5.30;99.90
66728;DHT22;53641;44.274;19.890;2023-02-27T05:16:38;5.30;99.90
66728;DHT22;53641;44.274;19.890;2023-02-27T05:19:05;5.40;99.90
66728;DHT22;53641;44.274;19.890;2023-02-27T05:21:41;5.40;99.90
66728;DHT22;53641;44.274;19.890;2023-02-27T05:25:28;5.10;99.90
66728;DHT22;53641;44.274;19.890;2023-02-27T05:27:31;5.10;99.90
66728;DHT22;53641;44.274;19.890;2023-02-27T05:29:50;5.40;99.90
66728;DHT22;53641;44.274;19.890;2023-02-27T05:32:28;5.30;99.90
66728;DHT22;53641;44.274;19.890;2023-02-27T05:34:58;5.20;99.90
66728;DHT22;53641;44.274;19.890;2023-02-27T05:37:28;5.40;99.90
66728;DHT22;53641;44.274;19.890;2023-02-27T05:39:55;5.40;99.90
66728;DHT22;53641;44.274;19.890;2023-02-27T05:42:29;5.50;99.90
66728;DHT22;53641;44.274;19.890;2023-02-27T05:44:59;5.50;99.90
66728;DHT22;53641;44.274;19.890;2023-02-27T05:47:27;5.40;99.90
66728;DHT22;53641;44.274;19.890;2023-02-27T05:49:56;5.50;99.90
66728;DHT22;53641;44.274;19.890;2023-02-27T05:52:23;5.50;99.90
66728;DHT22;53641;44.274;19.890;2023-02-27T05:54:54;5.40;99.90
66728;DHT22;53641;44.274;19.890;2023-02-27T05:57:27;5.10;99.90
66728;DHT22;53641;44.274;19.890;2023-02-27T05:59:59;5.40;99.90
66728;DHT22;53641;44.274;19.890;2023-02-27T06:02:27;5.20;99.90
66728;DHT22;53641;44.274;19.890;2023-02-27T06:04:53;5.40;99.90
66728;DHT22;53641;44.274;19.890;2023-02-27T06:07:19;5.50;99.90
66728;DHT22;53641;44.274;19.890;2023-02-27T06:09:45;5.40;99.90
66728;DHT22;53641;44.274;19.890;2023-02-27T06:12:11;5.40;99.90
66728;DHT22;53641;44.274;19.890;2023-02-27T06:14:37;5.60;99.90
66728;DHT22;53641;44.274;19.890;2023-02-27T06:17:03;5.50;99.90
66728;DHT22;53641;44.274;19.890;2023-02-27T06:19:29;5.50;99.90
66728;DHT22;53641;44.274;19.890;2023-02-27T06:21:54;5.60;99.90
66728;DHT22;53641;44.274;19.890;2023-02-27T06:24:20;5.70;99.90
66728;DHT22;53641;44.274;19.890;2023-02-27T06:26:46;5.50;99.90
66728;DHT22;53641;44.274;19.890;2023-02-27T06:29:15;5.80;99.90
66728;DHT22;53641;44.274;19.890;2023-02-27T06:31:44;5.60;99.90
66728;DHT22;53641;44.274;19.890;2023-02-27T06:34:09;5.90;99.90
66728;DHT22;53641;44.274;19.890;2023-02-27T06:36:35;5.60;99.90
66728;DHT22;53641;44.274;19.890;2023-02-27T06:39:01;5.50;99.90
66728;DHT22;53641;44.274;19.890;2023-02-27T06:41:26;5.60;99.90
66728;DHT22;53641;44.274;19.890;2023-02-27T06:43:53;5.50;99.90
66728;DHT22;53641;44.274;19.890;2023-02-27T06:46:20;5.70;99.90
66728;DHT22;53641;44.274;19.890;2023-02-27T06:48:45;5.50;99.90
66728;DHT22;53641;44.274;19.890;2023-02-27T06:51:14;5.50;99.90
66728;DHT22;53641;44.274;19.890;2023-02-27T06:53:40;5.60;99.90
66728;DHT22;53641;44.274;19.890;2023-02-27T06:56:11;5.90;99.90
66728;DHT22;53641;44.274;19.890;2023-02-27T06:58:37;5.80;99.90
66728;DHT22;53641;44.274;19.890;2023-02-27T07:01:03;5.40;99.90
66728;DHT22;53641;44.274;19.890;2023-02-27T07:03:29;5.60;99.90
66728;DHT22;53641;44.274;19.890;2023-02-27T07:05:55;5.50;99.90
66728;DHT22;53641;44.274;19.890;2023-02-27T07:08:30;5.90;99.90
66728;DHT22;53641;44.274;19.890;2023-02-27T07:11:02;6.60;99.90
66728;DHT22;53641;44.274;19.890;2023-02-27T07:13:28;5.90;99.90
66728;DHT22;53641;44.274;19.890;2023-02-27T07:15:54;5.90;99.90
66728;DHT22;53641;44.274;19.890;2023-02-27T07:18:20;6.10;99.90
66728;DHT22;53641;44.274;19.890;2023-02-27T07:20:50;5.50;99.90
66728;DHT22;53641;44.274;19.890;2023-02-27T07:23:18;5.80;99.90
66728;DHT22;53641;44.274;19.890;2023-02-27T07:25:45;6.30;99.90
66728;DHT22;53641;44.274;19.890;2023-02-27T07:28:15;6.00;99.90
66728;DHT22;53641;44.274;19.890;2023-02-27T07:30:41;5.70;99.90
66728;DHT22;53641;44.274;19.890;2023-02-27T07:33:07;6.00;99.90
66728;DHT22;53641;44.274;19.890;2023-02-27T07:35:33;6.00;99.90
66728;DHT22;53641;44.274;19.890;2023-02-27T07:37:58;6.00;99.90
66728;DHT22;53641;44.274;19.890;2023-02-27T07:40:24;6.10;99.90
66728;DHT22;53641;44.274;19.890;2023-02-27T07:42:50;5.80;99.90
66728;DHT22;53641;44.274;19.890;2023-02-27T07:45:16;6.00;99.90
66728;DHT22;53641;44.274;19.890;2023-02-27T07:47:45;5.90;99.90
66728;DHT22;53641;44.274;19.890;2023-02-27T07:50:11;6.10;99.90
66728;DHT22;53641;44.274;19.890;2023-02-27T07:52:39;6.10;99.90
66728;DHT22;53641;44.274;19.890;2023-02-27T07:55:05;6.20;99.90
66728;DHT22;53641;44.274;19.890;2023-02-27T07:57:32;6.30;99.90
66728;DHT22;53641;44.274;19.890;2023-02-27T07:59:57;6.50;99.90
66728;DHT22;53641;44.274;19.890;2023-02-27T08:02:23;6.50;99.90
66728;DHT22;53641;44.274;19.890;2023-02-27T08:04:49;6.60;99.90
66728;DHT22;53641;44.274;19.890;2023-02-27T08:07:16;6.40;99.90
66728;DHT22;53641;44.274;19.890;2023-02-27T08:09:41;6.80;99.90
66728;DHT22;53641;44.274;19.890;2023-02-27T08:12:07;7.10;99.90
66728;DHT22;53641;44.274;19.890;2023-02-27T08:14:33;7.10;99.90
66728;DHT22;53641;44.274;19.890;2023-02-27T08:16:58;7.10;99.90
66728;DHT22;53641;44.274;19.890;2023-02-27T08:19:27;7.30;99.90
66728;DHT22;53641;44.274;19.890;2023-02-27T08:21:53;7.20;99.90
66728;DHT22;53641;44.274;19.890;2023-02-27T08:24:18;7.30;99.90
66728;DHT22;53641;44.274;19.890;2023-02-27T08:26:44;7.60;99.90
66728;DHT22;53641;44.274;19.890;2023-02-27T08:29:10;7.70;99.90
66728;DHT22;53641;44.274;19.890;2023-02-27T08:31:35;8.00;99.90
66728;DHT22;53641;44.274;19.890;2023-02-27T08:34:01;8.00;99.90
66728;DHT22;53641;44.274;19.890;2023-02-27T08:36:29;8.00;99.90
66728;DHT22;53641;44.274;19.890;2023-02-27T08:38:57;8.00;99.90
66728;DHT22;53641;44.274;19.890;2023-02-27T08:41:23;8.00;99.90
66728;DHT22;53641;44.274;19.890;2023-02-27T08:43:49;7.80;99.90
66728;DHT22;53641;44.274;19.890;2023-02-27T08:46:15;8.00;99.90
66728;DHT22;53641;44.274;19.890;2023-02-27T08:48:40;7.80;99.90
66728;DHT22;53641;44.274;19.890;2023-02-27T08:51:07;7.60;99.90
66728;DHT22;53641;44.274;19.890;2023-02-27T08:53:33;7.40;99.90
66728;DHT22;53641;44.274;19.890;2023-02-27T08:55:58;7.50;99.90
66728;DHT22;53641;44.274;19.890;2023-02-27T08:58:24;7.50;99.90
66728;DHT22;53641;44.274;19.890;2023-02-27T09:00:50;7.20;99.90
66728;DHT22;53641;44.274;19.890;2023-02-27T09:03:16;7.40;99.90
66728;DHT22;53641;44.274;19.890;2023-02-27T09:05:41;7.60;99.90
66728;DHT22;53641;44.274;19.890;2023-02-27T09:08:07;7.50;99.90
66728;DHT22;53641;44.274;19.890;2023-02-27T09:10:33;7.70;99.90
66728;DHT22;53641;44.274;19.890;2023-02-27T09:12:59;7.70;99.90
66728;DHT22;53641;44.274;19.890;2023-02-27T09:15:26;7.70;99.90
66728;DHT22;53641;44.274;19.890;2023-02-27T09:17:52;7.40;99.90
66728;DHT22;53641;44.274;19.890;2023-02-27T09:20:20;7.60;99.90
66728;DHT22;53641;44.274;19.890;2023-02-27T09:22:46;7.60;99.90
66728;DHT22;53641;44.274;19.890;2023-02-27T09:25:12;7.70;99.90
66728;DHT22;53641;44.274;19.890;2023-02-27T09:27:38;7.80;99.90
66728;DHT22;53641;44.274;19.890;2023-02-27T09:30:04;7.60;99.90
66728;DHT22;53641;44.274;19.890;2023-02-27T09:32:29;7.10;99.90
66728;DHT22;53641;44.274;19.890;2023-02-27T09:34:55;7.60;99.90
66728;DHT22;53641;44.274;19.890;2023-02-27T09:37:22;7.60;99.90
66728;DHT22;53641;44.274;19.890;2023-02-27T09:39:49;7.60;99.90
66728;DHT22;53641;44.274;19.890;2023-02-27T09:42:22;7.80;99.90
66728;DHT22;53641;44.274;19.890;2023-02-27T09:44:53;7.80;99.90
66728;DHT22;53641;44.274;19.890;2023-02-27T09:47:23;8.00;99.90
66728;DHT22;53641;44.274;19.890;2023-02-27T09:50:06;8.20;99.90
66728;DHT22;53641;44.274;19.890;2023-02-27T09:52:35;7.90;99.90
66728;DHT22;53641;44.274;19.890;2023-02-27T09:55:03;8.00;99.90
66728;DHT22;53641;44.274;19.890;2023-02-27T09:57:53;8.10;99.90
66728;DHT22;53641;44.274;19.890;2023-02-27T10:00:41;8.10;99.90
66728;DHT22;53641;44.274;19.890;2023-02-27T10:03:20;8.30;99.90
66728;DHT22;53641;44.274;19.890;2023-02-27T10:05:57;8.50;99.90
66728;DHT22;53641;44.274;19.890;2023-02-27T10:08:29;9.00;99.90
66728;DHT22;53641;44.274;19.890;2023-02-27T10:11:02;8.90;99.90
66728;DHT22;53641;44.274;19.890;2023-02-27T10:13:46;8.40;99.90
66728;DHT22;53641;44.274;19.890;2023-02-27T10:16:16;8.50;99.90
66728;DHT22;53641;44.274;19.890;2023-02-27T10:18:55;8.60;99.90
66728;DHT22;53641;44.274;19.890;2023-02-27T10:21:30;8.80;99.90
66728;DHT22;53641;44.274;19.890;2023-02-27T10:24:04;8.80;99.90
66728;DHT22;53641;44.274;19.890;2023-02-27T10:26:35;8.90;99.90
66728;DHT22;53641;44.274;19.890;2023-02-27T10:29:02;8.90;99.90
66728;DHT22;53641;44.274;19.890;2023-02-27T10:31:37;8.80;99.90
66728;DHT22;53641;44.274;19.890;2023-02-27T10:34:03;9.00;99.90
66728;DHT22;53641;44.274;19.890;2023-02-27T10:36:28;9.00;99.90
66728;DHT22;53641;44.274;19.890;2023-02-27T10:38:55;8.50;99.90
66728;DHT22;53641;44.274;19.890;2023-02-27T10:41:22;8.20;99.90
66728;DHT22;53641;44.274;19.890;2023-02-27T10:43:50;7.30;99.90
66728;DHT22;53641;44.274;19.890;2023-02-27T10:46:18;7.80;99.90
66728;DHT22;53641;44.274;19.890;2023-02-27T10:48:46;7.20;99.90
66728;DHT22;53641;44.274;19.890;2023-02-27T10:51:20;7.60;99.90
66728;DHT22;53641;44.274;19.890;2023-02-27T10:53:48;7.70;99.90
66728;DHT22;53641;44.274;19.890;2023-02-27T10:56:26;7.90;99.90
66728;DHT22;53641;44.274;19.890;2023-02-27T10:59:03;7.90;99.90
66728;DHT22;53641;44.274;19.890;2023-02-27T11:01:39;8.00;99.90
66728;DHT22;53641;44.274;19.890;2023-02-27T11:04:05;8.00;99.90
66728;DHT22;53641;44.274;19.890;2023-02-27T11:06:31;8.20;99.90
66728;DHT22;53641;44.274;19.890;2023-02-27T11:09:20;8.00;99.90
66728;DHT22;53641;44.274;19.890;2023-02-27T11:11:42;7.90;99.90
66728;DHT22;53641;44.274;19.890;2023-02-27T11:14:27;8.00;99.90
66728;DHT22;53641;44.274;19.890;2023-02-27T11:16:54;7.90;99.90
66728;DHT22;53641;44.274;19.890;2023-02-27T11:19:33;7.30;99.90
66728;DHT22;53641;44.274;19.890;2023-02-27T11:22:06;7.10;99.90
66728;DHT22;53641;44.274;19.890;2023-02-27T11:24:33;6.80;99.90
66728;DHT22;53641;44.274;19.890;2023-02-27T11:27:01;6.50;99.90
66728;DHT22;53641;44.274;19.890;2023-02-27T11:29:32;6.50;99.90
66728;DHT22;53641;44.274;19.890;2023-02-27T11:32:10;6.90;99.90
66728;DHT22;53641;44.274;19.890;2023-02-27T11:34:38;7.10;99.90
66728;DHT22;53641;44.274;19.890;2023-02-27T11:37:05;6.80;99.90
66728;DHT22;53641;44.274;19.890;2023-02-27T11:39:35;6.70;99.90
66728;DHT22;53641;44.274;19.890;2023-02-27T11:42:06;6.60;99.90
66728;DHT22;53641;44.274;19.890;2023-02-27T11:44:33;6.40;99.90
66728;DHT22;53641;44.274;19.890;2023-02-27T11:47:13;6.50;99.90
66728;DHT22;53641;44.274;19.890;2023-02-27T11:49:45;6.40;99.90
66728;DHT22;53641;44.274;19.890;2023-02-27T11:52:17;6.20;99.90
66728;DHT22;53641;44.274;19.890;2023-02-27T11:54:48;6.10;99.90
66728;DHT22;53641;44.274;19.890;2023-02-27T11:57:29;6.20;99.90
66728;DHT22;53641;44.274;19.890;2023-02-27T11:59:58;6.20;99.90
66728;DHT22;53641;44.274;19.890;2023-02-27T12:03:25;6.40;99.90
66728;DHT22;53641;44.274;19.890;2023-02-27T12:05:18;6.30;99.90
66728;DHT22;53641;44.274;19.890;2023-02-27T12:07:59;6.10;99.90
66728;DHT22;53641;44.274;19.890;2023-02-27T12:10:27;5.80;99.90
66728;DHT22;53641;44.274;19.890;2023-02-27T12:12:57;6.70;99.90
66728;DHT22;53641;44.274;19.890;2023-02-27T12:15:43;6.60;99.90
66728;DHT22;53641;44.274;19.890;2023-02-27T12:18:30;6.50;99.90
66728;DHT22;53641;44.274;19.890;2023-02-27T12:21:03;6.60;99.90
66728;DHT22;53641;44.274;19.890;2023-02-27T12:23:38;6.70;99.90
66728;DHT22;53641;44.274;19.890;2023-02-27T12:26:07;6.60;99.90
66728;DHT22;53641;44.274;19.890;2023-02-27T12:28:47;6.80;99.90
66728;DHT22;53641;44.274;19.890;2023-02-27T12:31:26;6.80;99.90
66728;DHT22;53641;44.274;19.890;2023-02-27T12:36:41;6.50;99.90
66728;DHT22;53641;44.274;19.890;2023-02-27T12:39:14;6.60;99.90
66728;DHT22;53641;44.274;19.890;2023-02-27T12:44:35;6.30;99.90
66728;DHT22;53641;44.274;19.890;2023-02-27T12:47:18;6.30;99.90
66728;DHT22;53641;44.274;19.890;2023-02-27T12:50:02;6.30;99.90
66728;DHT22;53641;44.274;19.890;2023-02-27T12:52:39;6.30;99.90
66728;DHT22;53641;44.274;19.890;2023-02-27T12:55:17;6.00;99.90
66728;DHT22;53641;44.274;19.890;2023-02-27T12:58:14;5.90;99.90
66728;DHT22;53641;44.274;19.890;2023-02-27T13:00:39;5.90;99.90
66728;DHT22;53641;44.274;19.890;2023-02-27T13:04:39;6.00;99.90
66728;DHT22;53641;44.274;19.890;2023-02-27T13:05:59;6.00;99.90
66728;DHT22;53641;44.274;19.890;2023-02-27T13:08:47;5.90;99.90
66728;DHT22;53641;44.274;19.890;2023-02-27T13:11:17;6.30;99.90
66728;DHT22;53641;44.274;19.890;2023-02-27T13:13:52;5.20;99.90
66728;DHT22;53641;44.274;19.890;2023-02-27T13:16:28;5.60;99.90
66728;DHT22;53641;44.274;19.890;2023-02-27T13:19:08;5.70;99.90
66728;DHT22;53641;44.274;19.890;2023-02-27T13:21:53;6.30;99.90
66728;DHT22;53641;44.274;19.890;2023-02-27T13:24:24;5.90;99.90
66728;DHT22;53641;44.274;19.890;2023-02-27T13:27:09;6.30;99.90
66728;DHT22;53641;44.274;19.890;2023-02-27T13:29:40;6.10;99.90
66728;DHT22;53641;44.274;19.890;2023-02-27T13:32:23;5.90;99.90
66728;DHT22;53641;44.274;19.890;2023-02-27T13:34:57;5.60;99.90
66728;DHT22;53641;44.274;19.890;2023-02-27T13:37:37;5.70;99.90
66728;DHT22;53641;44.274;19.890;2023-02-27T13:40:29;5.60;99.90
66728;DHT22;53641;44.274;19.890;2023-02-27T13:42:56;5.60;99.90
66728;DHT22;53641;44.274;19.890;2023-02-27T13:45:58;5.50;99.90
66728;DHT22;53641;44.274;19.890;2023-02-27T13:48:47;5.40;99.90
66728;DHT22;53641;44.274;19.890;2023-02-27T13:50:53;5.30;99.90
66728;DHT22;53641;44.274;19.890;2023-02-27T13:53:19;5.40;99.90
66728;DHT22;53641;44.274;19.890;2023-02-27T13:55:46;5.40;99.90
66728;DHT22;53641;44.274;19.890;2023-02-27T13:58:14;5.20;99.90
66728;DHT22;53641;44.274;19.890;2023-02-27T14:00:40;5.40;99.90
66728;DHT22;53641;44.274;19.890;2023-02-27T14:03:08;5.40;99.90
66728;DHT22;53641;44.274;19.890;2023-02-27T14:05:43;5.30;99.90
66728;DHT22;53641;44.274;19.890;2023-02-27T14:08:21;6.20;99.90
66728;DHT22;53641;44.274;19.890;2023-02-27T14:11:15;6.50;99.90
66728;DHT22;53641;44.274;19.890;2023-02-27T14:13:58;6.50;99.90
66728;DHT22;53641;44.274;19.890;2023-02-27T14:16:49;6.40;99.90
66728;DHT22;53641;44.274;19.890;2023-02-27T14:21:54;6.80;99.90
66728;DHT22;53641;44.274;19.890;2023-02-27T14:24:26;7.10;99.90
66728;DHT22;53641;44.274;19.890;2023-02-27T14:26:53;7.00;99.90
66728;DHT22;53641;44.274;19.890;2023-02-27T14:29:21;7.00;99.90
66728;DHT22;53641;44.274;19.890;2023-02-27T14:31:47;7.00;99.90
66728;DHT22;53641;44.274;19.890;2023-02-27T14:34:14;6.90;99.90
66728;DHT22;53641;44.274;19.890;2023-02-27T14:36:54;7.00;99.90
66728;DHT22;53641;44.274;19.890;2023-02-27T14:39:31;7.10;99.90
66728;DHT22;53641;44.274;19.890;2023-02-27T14:44:44;7.20;99.90
66728;DHT22;53641;44.274;19.890;2023-02-27T14:47:14;7.00;99.90
66728;DHT22;53641;44.274;19.890;2023-02-27T14:49:43;7.00;99.90
66728;DHT22;53641;44.274;19.890;2023-02-27T14:52:12;6.90;99.90
66728;DHT22;53641;44.274;19.890;2023-02-27T14:54:38;7.10;99.90
66728;DHT22;53641;44.274;19.890;2023-02-27T14:57:05;6.70;99.90
66728;DHT22;53641;44.274;19.890;2023-02-27T14:59:41;6.70;99.90
66728;DHT22;53641;44.274;19.890;2023-02-27T15:02:22;6.80;99.90
66728;DHT22;53641;44.274;19.890;2023-02-27T15:04:51;6.70;99.90
66728;DHT22;53641;44.274;19.890;2023-02-27T15:07:19;6.50;99.90
66728;DHT22;53641;44.274;19.890;2023-02-27T15:09:52;6.40;99.90
66728;DHT22;53641;44.274;19.890;2023-02-27T15:12:19;6.50;99.90
66728;DHT22;53641;44.274;19.890;2023-02-27T15:14:46;6.50;99.90
66728;DHT22;53641;44.274;19.890;2023-02-27T15:17:21;6.30;99.90
66728;DHT22;53641;44.274;19.890;2023-02-27T15:19:48;6.60;99.90
66728;DHT22;53641;44.274;19.890;2023-02-27T15:22:21;6.50;99.90
66728;DHT22;53641;44.274;19.890;2023-02-27T15:24:51;6.60;99.90
66728;DHT22;53641;44.274;19.890;2023-02-27T15:27:18;6.50;99.90
66728;DHT22;53641;44.274;19.890;2023-02-27T15:29:58;6.70;99.90
66728;DHT22;53641;44.274;19.890;2023-02-27T15:32:37;6.60;99.90
66728;DHT22;53641;44.274;19.890;2023-02-27T15:35:20;6.50;99.90
66728;DHT22;53641;44.274;19.890;2023-02-27T15:37:50;6.80;99.90
66728;DHT22;53641;44.274;19.890;2023-02-27T15:40:21;6.70;99.90
66728;DHT22;53641;44.274;19.890;2023-02-27T15:42:47;6.30;99.90
66728;DHT22;53641;44.274;19.890;2023-02-27T15:45:14;6.80;99.90
66728;DHT22;53641;44.274;19.890;2023-02-27T15:47:41;6.70;99.90
66728;DHT22;53641;44.274;19.890;2023-02-27T15:50:09;6.70;99.90
66728;DHT22;53641;44.274;19.890;2023-02-27T15:52:40;6.30;99.90
66728;DHT22;53641;44.274;19.890;2023-02-27T15:55:12;6.40;99.90
66728;DHT22;53641;44.274;19.890;2023-02-27T15:57:38;6.70;99.90
66728;DHT22;53641;44.274;19.890;2023-02-27T16:00:05;6.90;99.90
66728;DHT22;53641;44.274;19.890;2023-02-27T16:02:41;6.90;99.90
66728;DHT22;53641;44.274;19.890;2023-02-27T16:05:15;6.70;99.90